createdAt,value
2022-12-13T08:38:28.971Z,29.67
2022-12-13T08:40:59.652Z,36.70
2022-12-13T08:43:27.051Z,35.53
2022-12-13T08:45:54.415Z,36.90
2022-12-13T08:51:38.595Z,33.85
2022-12-13T08:54:10.518Z,30.90
2022-12-13T08:56:39.139Z,31.60
2022-12-13T08:59:11.095Z,31.65
2022-12-13T09:01:38.621Z,26.73
2022-12-13T09:04:06.091Z,29.48
2022-12-13T09:06:33.536Z,28.20
2022-12-13T09:09:03.490Z,29.13
2022-12-13T09:11:34.552Z,28.83
2022-12-13T09:14:04.876Z,30.30
2022-12-13T09:16:36.016Z,30.17
2022-12-13T09:19:24.678Z,30.02
2022-12-13T09:21:52.297Z,27.02
2022-12-13T09:24:29.444Z,27.83
2022-12-13T09:27:09.291Z,25.10
2022-12-13T09:29:38.689Z,25.38
2022-12-13T09:32:06.344Z,23.90
2022-12-13T09:34:33.835Z,27.63
2022-12-13T09:37:02.074Z,26.20
2022-12-13T09:39:30.087Z,27.23
2022-12-13T09:42:01.296Z,24.80
2022-12-13T09:45:02.203Z,25.38
2022-12-13T09:47:46.829Z,21.55
2022-12-13T09:50:38.503Z,22.45
2022-12-13T09:53:11.867Z,28.80
2022-12-13T09:55:52.486Z,28.98
2022-12-13T09:58:32.003Z,21.30
2022-12-13T10:00:59.594Z,16.50
2022-12-13T10:03:27.689Z,28.88
2022-12-13T10:06:41.631Z,23.95
2022-12-13T10:09:14.988Z,26.85
2022-12-13T10:11:54.438Z,29.70
2022-12-13T10:14:42.977Z,28.90
2022-12-13T10:17:19.545Z,30.55
2022-12-13T10:19:52.378Z,24.77
2022-12-13T10:22:23.086Z,24.63
2022-12-13T10:25:03.937Z,20.90
2022-12-13T10:27:45.097Z,21.80
2022-12-13T10:30:28.820Z,25.83
2022-12-13T10:33:06.201Z,22.15
2022-12-13T10:35:40.903Z,23.52
2022-12-13T10:38:14.215Z,19.95
2022-12-13T10:40:45.673Z,25.27
2022-12-13T10:43:27.740Z,27.17
2022-12-13T10:45:58.629Z,22.27
2022-12-13T10:48:49.304Z,22.85
2022-12-13T10:54:00.726Z,21.08
2022-12-13T10:56:51.435Z,22.33
2022-12-13T11:01:48.367Z,26.67
2022-12-13T11:04:34.919Z,24.75
2022-12-13T11:07:29.893Z,22.27
2022-12-13T11:10:15.088Z,20.83
2022-12-13T11:12:42.886Z,25.38
2022-12-13T11:15:25.494Z,22.23
2022-12-13T11:18:06.554Z,18.58
2022-12-13T11:20:54.072Z,19.73
2022-12-13T11:23:46.370Z,18.67
2022-12-13T11:26:24.275Z,20.52
2022-12-13T11:30:02.698Z,15.73
2022-12-13T11:32:46.644Z,10.35
2022-12-13T11:35:58.746Z,7.38
2022-12-13T11:39:14.745Z,8.70
2022-12-13T11:42:30.620Z,7.38
2022-12-13T11:45:22.964Z,7.63
2022-12-13T11:48:09.828Z,8.48
2022-12-13T11:50:49.061Z,8.02
2022-12-13T11:53:26.656Z,11.05
2022-12-13T11:56:33.487Z,7.80
2022-12-13T11:59:39.642Z,7.32
2022-12-13T12:02:40.418Z,7.57
2022-12-13T12:05:38.314Z,7.65
2022-12-13T12:08:40.910Z,8.93
2022-12-13T12:11:43.519Z,9.60
2022-12-13T12:14:31.095Z,16.70
2022-12-13T12:17:00.037Z,7.82
2022-12-13T12:19:46.787Z,7.50
2022-12-13T12:23:25.154Z,8.43
2022-12-13T12:26:14.796Z,7.07
2022-12-13T12:29:14.545Z,8.03
2022-12-13T12:32:33.312Z,5.63
2022-12-13T12:35:56.598Z,8.73
2022-12-13T12:38:55.271Z,10.90
2022-12-13T12:42:18.173Z,14.02
2022-12-13T12:45:03.711Z,8.80
2022-12-13T12:49:05.728Z,9.63
2022-12-13T12:52:19.041Z,10.38
2022-12-13T12:55:36.462Z,9.98
2022-12-13T12:58:54.028Z,7.97
2022-12-13T13:02:14.450Z,9.45
2022-12-13T13:04:55.595Z,7.57
2022-12-13T13:07:40.172Z,7.35
2022-12-13T13:10:16.278Z,10.40
2022-12-13T13:12:53.545Z,7.88
2022-12-13T13:15:40.049Z,8.60
2022-12-13T13:18:49.603Z,8.80
2022-12-13T13:21:32.238Z,11.55
2022-12-13T13:24:08.334Z,8.95
2022-12-13T13:26:57.260Z,10.82
2022-12-13T13:29:27.596Z,10.20
2022-12-13T13:32:28.272Z,10.10
2022-12-13T13:35:32.486Z,7.22
2022-12-13T13:38:23.476Z,8.35
2022-12-13T13:40:51.553Z,7.90
2022-12-13T13:43:32.856Z,11.07
2022-12-13T13:46:11.572Z,12.55
2022-12-13T13:49:11.935Z,10.45
2022-12-13T13:52:28.470Z,8.63
2022-12-13T13:55:40.650Z,10.88
2022-12-13T13:59:37.961Z,10.05
2022-12-13T14:03:39.648Z,9.10
2022-12-13T14:06:44.283Z,12.93
2022-12-13T14:10:00.822Z,12.75
2022-12-13T14:13:18.083Z,10.63
2022-12-13T14:16:37.738Z,11.65
2022-12-13T14:20:04.039Z,12.25
2022-12-13T14:22:50.559Z,10.27
2022-12-13T14:26:16.701Z,10.55
2022-12-13T14:29:00.101Z,11.63
2022-12-13T14:31:47.834Z,11.35
2022-12-13T14:34:30.702Z,8.80
2022-12-13T14:37:03.850Z,9.65
2022-12-13T14:39:36.469Z,11.05
2022-12-13T14:42:33.402Z,7.90
2022-12-13T14:45:29.634Z,10.73
2022-12-13T14:48:11.910Z,8.50
2022-12-13T14:50:41.545Z,8.88
2022-12-13T14:53:41.303Z,9.77
2022-12-13T14:56:27.680Z,10.27
2022-12-13T14:59:11.748Z,10.73
2022-12-13T15:01:41.025Z,10.88
2022-12-13T15:04:22.021Z,9.20
2022-12-13T15:07:41.684Z,13.23
2022-12-13T15:10:14.910Z,10.10
2022-12-13T15:12:44.702Z,11.65
2022-12-13T15:15:34.655Z,7.97
2022-12-13T15:18:18.649Z,11.85
2022-12-13T15:20:49.022Z,10.65
2022-12-13T15:23:48.643Z,11.27
2022-12-13T15:26:27.780Z,8.35
2022-12-13T15:29:09.528Z,10.40
2022-12-13T15:31:40.687Z,13.15
2022-12-13T15:34:29.128Z,11.18
2022-12-13T15:37:29.033Z,10.25
2022-12-13T15:40:09.620Z,10.85
2022-12-13T15:42:44.601Z,10.65
2022-12-13T15:45:33.132Z,11.35
2022-12-13T15:48:02.398Z,13.40
2022-12-13T15:50:47.057Z,14.13
2022-12-13T15:53:29.285Z,10.18
2022-12-13T15:58:36.415Z,13.07
2022-12-13T16:01:05.688Z,12.57
2022-12-13T16:03:45.323Z,12.52
2022-12-13T16:06:22.161Z,9.95
2022-12-13T16:09:00.684Z,13.43
2022-12-13T16:11:48.431Z,12.60
2022-12-13T16:14:30.563Z,12.43
2022-12-13T16:17:28.315Z,10.70
2022-12-13T16:20:06.166Z,14.30
2022-12-13T16:22:36.700Z,11.88
2022-12-13T16:25:04.792Z,15.07
2022-12-13T16:27:32.264Z,13.55
2022-12-13T16:29:59.693Z,13.68
2022-12-13T16:32:27.191Z,12.40
2022-12-13T16:34:54.603Z,13.30
2022-12-13T16:37:27.544Z,11.07
2022-12-13T16:39:55.246Z,15.48
2022-12-13T16:42:26.133Z,14.38
2022-12-13T16:45:40.596Z,13.60
2022-12-13T16:47:49.147Z,13.43
2022-12-13T16:50:21.361Z,16.98
2022-12-13T16:52:49.768Z,16.77
2022-12-13T16:55:17.513Z,14.02
2022-12-13T16:57:54.269Z,15.95
2022-12-13T17:00:21.721Z,16.10
2022-12-13T17:02:49.118Z,13.30
2022-12-13T17:05:16.718Z,15.18
2022-12-13T17:07:44.068Z,17.48
2022-12-13T17:10:12.408Z,13.55
2022-12-13T17:12:40.014Z,14.75
2022-12-13T17:15:32.431Z,13.70
2022-12-13T17:18:48.121Z,15.77
2022-12-13T17:21:26.025Z,14.52
2022-12-13T17:24:14.026Z,17.35
2022-12-13T17:26:59.862Z,14.80
2022-12-13T17:29:59.836Z,13.05
2022-12-13T17:32:46.730Z,13.02
2022-12-13T17:35:30.534Z,13.73
2022-12-13T17:38:00.881Z,17.55
2022-12-13T17:40:28.270Z,17.10
2022-12-13T17:42:55.663Z,17.05
2022-12-13T17:45:23.411Z,15.18
2022-12-13T17:47:50.842Z,20.40
2022-12-13T17:50:18.375Z,17.20
2022-12-13T17:52:45.720Z,17.63
2022-12-13T17:55:18.074Z,19.10
2022-12-13T17:57:46.980Z,19.20
2022-12-13T18:00:15.793Z,18.48
2022-12-13T18:02:43.132Z,19.10
2022-12-13T18:05:26.151Z,15.80
2022-12-13T18:07:53.601Z,17.50
2022-12-13T18:10:26.256Z,18.95
2022-12-13T18:12:57.172Z,17.77
2022-12-13T18:15:24.632Z,16.08
2022-12-13T18:20:40.191Z,17.50
2022-12-13T18:23:07.899Z,18.80
2022-12-13T18:25:36.189Z,19.30
2022-12-13T18:28:03.747Z,22.08
2022-12-13T18:30:32.404Z,21.20
2022-12-13T18:32:59.934Z,18.27
2022-12-13T18:35:27.595Z,19.90
2022-12-13T18:37:54.966Z,20.15
2022-12-13T18:40:23.446Z,17.38
